TCX03CX EGKK-LEIB
Flight info
| Callsign | TCX03CX |
|---|---|
| Flight time | N/A |
| Altitude | 31000 |
| Route | SFD Y47 DRAKE L151 SITET UN859 SOPIL DCT BALAN DCT EVPOK DCT NARAK DCT GAI DCT LOMRA DCT ROCAN DCT PUMAL DCT XEPLA DCT BCN DCT CORDA |
| Aircraft | A321/M-SDE3FGHIRWY/LB1 |
Departure
| Time | N/A |
|---|---|
| Airport | London Gatwick Airport (EGKK) |
Arrival
| Time | 2026-04-30 22:07 |
|---|---|
| Airport | Ibiza Airport (LEIB) |
| Time | Latitude | Longitude | Altitude | Speed | Heading |
|---|---|---|---|---|---|
| 2026-04-30 20:14 | 50.51156 | 0.03186 | 18634 ft | 377 kts | 190° |
| 2026-04-30 20:15 | 50.48558 | 0.02256 | 19012 ft | 379 kts | 190° |
| 2026-04-30 20:15 | 50.45982 | 0.01330 | 19379 ft | 380 kts | 190° |
| 2026-04-30 20:15 | 50.43501 | 0.00436 | 19728 ft | 382 kts | 190° |
| 2026-04-30 20:15 | 50.40806 | -0.00528 | 20098 ft | 384 kts | 189° |
| 2026-04-30 20:16 | 50.38193 | -0.01463 | 20460 ft | 385 kts | 189° |
| 2026-04-30 20:16 | 50.35580 | -0.02400 | 20824 ft | 386 kts | 189° |
| 2026-04-30 20:16 | 50.32953 | -0.03336 | 21186 ft | 388 kts | 189° |
| 2026-04-30 20:16 | 50.30317 | -0.04271 | 21556 ft | 389 kts | 189° |
| 2026-04-30 20:17 | 50.27703 | -0.05199 | 21909 ft | 391 kts | 189° |
| 2026-04-30 20:17 | 50.25041 | -0.06122 | 22274 ft | 392 kts | 187° |
| 2026-04-30 20:17 | 50.22304 | -0.06506 | 22641 ft | 390 kts | 176° |
| 2026-04-30 20:17 | 50.19650 | -0.06099 | 22995 ft | 388 kts | 167° |
| 2026-04-30 20:18 | 50.17063 | -0.04913 | 23347 ft | 389 kts | 156° |
| 2026-04-30 20:18 | 50.14556 | -0.03169 | 23690 ft | 390 kts | 155° |
| 2026-04-30 20:18 | 50.12072 | -0.01426 | 24005 ft | 392 kts | 155° |
| 2026-04-30 20:18 | 50.09569 | 0.00157 | 24269 ft | 395 kts | 161° |
| 2026-04-30 20:19 | 50.06902 | 0.01253 | 24571 ft | 398 kts | 164° |
| 2026-04-30 20:19 | 50.04179 | 0.02320 | 24858 ft | 400 kts | 164° |
| 2026-04-30 20:19 | 50.01477 | 0.03379 | 25143 ft | 402 kts | 164° |
| 2026-04-30 20:19 | 49.98758 | 0.04448 | 25424 ft | 403 kts | 164° |
| 2026-04-30 20:20 | 49.96030 | 0.05522 | 25688 ft | 406 kts | 164° |
| 2026-04-30 20:20 | 49.93286 | 0.06602 | 25930 ft | 409 kts | 164° |
| 2026-04-30 20:20 | 49.90519 | 0.07690 | 26190 ft | 411 kts | 164° |
| 2026-04-30 20:20 | 49.87743 | 0.08778 | 26464 ft | 413 kts | 164° |
| 2026-04-30 20:21 | 49.84951 | 0.09864 | 26723 ft | 415 kts | 164° |
| 2026-04-30 20:21 | 49.82145 | 0.10958 | 26994 ft | 417 kts | 164° |
| 2026-04-30 20:21 | 49.79325 | 0.12060 | 27264 ft | 419 kts | 164° |
| 2026-04-30 20:21 | 49.76494 | 0.13165 | 27525 ft | 421 kts | 165° |
| 2026-04-30 20:22 | 49.73650 | 0.14272 | 27785 ft | 423 kts | 165° |
| 2026-04-30 20:22 | 49.70786 | 0.15384 | 28004 ft | 426 kts | 165° |
| 2026-04-30 20:22 | 49.67906 | 0.16502 | 28242 ft | 428 kts | 165° |
| 2026-04-30 20:22 | 49.65052 | 0.17624 | 28484 ft | 430 kts | 164° |
| 2026-04-30 20:23 | 49.62113 | 0.18803 | 28720 ft | 431 kts | 164° |
| 2026-04-30 20:23 | 49.59205 | 0.19983 | 28942 ft | 433 kts | 164° |
| 2026-04-30 20:23 | 49.56285 | 0.21172 | 29154 ft | 435 kts | 164° |
| 2026-04-30 20:23 | 49.53357 | 0.22362 | 29357 ft | 437 kts | 164° |
| 2026-04-30 20:24 | 49.50412 | 0.23558 | 29539 ft | 439 kts | 165° |
| 2026-04-30 20:24 | 49.47443 | 0.24757 | 29680 ft | 442 kts | 165° |
| 2026-04-30 20:24 | 49.44457 | 0.25955 | 29823 ft | 445 kts | 165° |
| 2026-04-30 20:24 | 49.41456 | 0.27153 | 29996 ft | 446 kts | 165° |
| 2026-04-30 20:25 | 49.35440 | 0.29532 | 30416 ft | 447 kts | 165° |
| 2026-04-30 20:25 | 49.32467 | 0.30707 | 30626 ft | 446 kts | 165° |
| 2026-04-30 20:26 | 49.26454 | 0.33154 | 30991 ft | 448 kts | 164° |
| 2026-04-30 20:26 | 49.20485 | 0.35710 | 31154 ft | 437 kts | 164° |
| 2026-04-30 20:26 | 49.17574 | 0.36956 | 31154 ft | 433 kts | 164° |
| 2026-04-30 20:27 | 49.05973 | 0.41837 | 31148 ft | 433 kts | 164° |
| 2026-04-30 20:28 | 48.94382 | 0.46680 | 31152 ft | 429 kts | 164° |
| 2026-04-30 20:30 | 48.79991 | 0.52646 | 31150 ft | 428 kts | 164° |
| 2026-04-30 20:31 | 48.62686 | 0.59440 | 31133 ft | 429 kts | 165° |
| 2026-04-30 20:32 | 48.48175 | 0.65129 | 31127 ft | 432 kts | 164° |
| 2026-04-30 20:33 | 48.39457 | 0.68713 | 31127 ft | 434 kts | 164° |
| 2026-04-30 20:34 | 48.30709 | 0.72275 | 31129 ft | 435 kts | 164° |
| 2026-04-30 20:35 | 48.21933 | 0.75794 | 31138 ft | 436 kts | 164° |
| 2026-04-30 20:35 | 48.13155 | 0.79237 | 31149 ft | 435 kts | 165° |
| 2026-04-30 20:36 | 48.07285 | 0.81525 | 31152 ft | 435 kts | 165° |
| 2026-04-30 20:37 | 47.98518 | 0.84956 | 31154 ft | 434 kts | 164° |
| 2026-04-30 20:37 | 47.92679 | 0.87241 | 31151 ft | 433 kts | 165° |
| 2026-04-30 20:38 | 47.86842 | 0.89504 | 31151 ft | 433 kts | 165° |
| 2026-04-30 20:38 | 47.81007 | 0.91762 | 31148 ft | 433 kts | 164° |
| 2026-04-30 20:39 | 47.72294 | 0.95151 | 31166 ft | 432 kts | 164° |
| 2026-04-30 20:40 | 47.63579 | 0.98511 | 31168 ft | 431 kts | 164° |
| 2026-04-30 20:40 | 47.57775 | 1.00743 | 31174 ft | 431 kts | 164° |
| 2026-04-30 20:41 | 47.50026 | 1.03711 | 31175 ft | 429 kts | 164° |
| 2026-04-30 20:41 | 47.44237 | 1.05870 | 31170 ft | 429 kts | 168° |
| 2026-04-30 20:42 | 47.38273 | 1.06359 | 31166 ft | 431 kts | 179° |
| 2026-04-30 20:43 | 47.29279 | 1.06128 | 31168 ft | 431 kts | 179° |
| 2026-04-30 20:43 | 47.23281 | 1.05983 | 31165 ft | 431 kts | 179° |
| 2026-04-30 20:44 | 47.14292 | 1.05768 | 31162 ft | 430 kts | 179° |
| 2026-04-30 20:45 | 47.02316 | 1.05489 | 31163 ft | 430 kts | 179° |
| 2026-04-30 20:45 | 46.96334 | 1.05270 | 31176 ft | 430 kts | 179° |
| 2026-04-30 20:46 | 46.84372 | 1.04720 | 31166 ft | 430 kts | 179° |
| 2026-04-30 20:47 | 46.75399 | 1.04341 | 31166 ft | 430 kts | 179° |
| 2026-04-30 20:48 | 46.66433 | 1.03970 | 31172 ft | 429 kts | 179° |
| 2026-04-30 20:48 | 46.60464 | 1.03702 | 31170 ft | 429 kts | 179° |
| 2026-04-30 20:49 | 46.54492 | 1.03448 | 31184 ft | 429 kts | 179° |
| 2026-04-30 20:50 | 46.45754 | 1.05305 | 31182 ft | 423 kts | 165° |
| 2026-04-30 20:50 | 46.40011 | 1.07235 | 31179 ft | 423 kts | 165° |
| 2026-04-30 20:51 | 46.34269 | 1.09143 | 31181 ft | 423 kts | 165° |
| 2026-04-30 20:51 | 46.25652 | 1.11995 | 31179 ft | 424 kts | 165° |
| 2026-04-30 20:52 | 46.19903 | 1.13903 | 31180 ft | 424 kts | 165° |
| 2026-04-30 20:53 | 46.11266 | 1.16768 | 31181 ft | 425 kts | 165° |
| 2026-04-30 20:53 | 46.05505 | 1.18674 | 31180 ft | 425 kts | 165° |
| 2026-04-30 20:54 | 45.96854 | 1.21531 | 31174 ft | 425 kts | 166° |
| 2026-04-30 20:55 | 45.88205 | 1.24360 | 31188 ft | 424 kts | 166° |
| 2026-04-30 20:55 | 45.82448 | 1.26244 | 31177 ft | 424 kts | 166° |
| 2026-04-30 20:56 | 45.73746 | 1.29075 | 31195 ft | 436 kts | 167° |
| 2026-04-30 20:56 | 45.67758 | 1.31027 | 31205 ft | 447 kts | 167° |
| 2026-04-30 20:57 | 45.64757 | 1.32005 | 31203 ft | 451 kts | 167° |
| 2026-04-30 20:57 | 45.58572 | 1.34016 | 31197 ft | 458 kts | 167° |
| 2026-04-30 20:58 | 45.49192 | 1.37064 | 31197 ft | 463 kts | 168° |
| 2026-04-30 20:58 | 45.42905 | 1.39086 | 31202 ft | 463 kts | 168° |
| 2026-04-30 20:59 | 45.33473 | 1.42110 | 31199 ft | 464 kts | 168° |
| 2026-04-30 21:00 | 45.20872 | 1.46158 | 31191 ft | 465 kts | 168° |
| 2026-04-30 21:01 | 45.11402 | 1.49183 | 31171 ft | 467 kts | 170° |
| 2026-04-30 21:02 | 45.01855 | 1.52208 | 31162 ft | 470 kts | 170° |
| 2026-04-30 21:02 | 44.95470 | 1.54239 | 31177 ft | 470 kts | 171° |
| 2026-04-30 21:03 | 44.89082 | 1.56271 | 31196 ft | 471 kts | 171° |
| 2026-04-30 21:03 | 44.82687 | 1.58293 | 31206 ft | 471 kts | 171° |
| 2026-04-30 21:04 | 44.76292 | 1.60303 | 31208 ft | 470 kts | 171° |
| 2026-04-30 21:04 | 44.66723 | 1.63299 | 31206 ft | 470 kts | 171° |
| 2026-04-30 21:05 | 44.60337 | 1.65302 | 31193 ft | 470 kts | 171° |
| 2026-04-30 21:05 | 44.53934 | 1.67295 | 31204 ft | 472 kts | 172° |
| 2026-04-30 21:06 | 44.47522 | 1.69280 | 31212 ft | 472 kts | 172° |
| 2026-04-30 21:06 | 44.41100 | 1.71282 | 31204 ft | 472 kts | 172° |
| 2026-04-30 21:07 | 44.34672 | 1.73285 | 31205 ft | 476 kts | 172° |
| 2026-04-30 21:07 | 44.28195 | 1.75274 | 31203 ft | 476 kts | 173° |
| 2026-04-30 21:08 | 44.21680 | 1.76840 | 31207 ft | 475 kts | 176° |
| 2026-04-30 21:08 | 44.15122 | 1.78137 | 31198 ft | 477 kts | 176° |
| 2026-04-30 21:09 | 44.08543 | 1.79481 | 31199 ft | 478 kts | 176° |
| 2026-04-30 21:09 | 44.01964 | 1.80927 | 31198 ft | 478 kts | 175° |
| 2026-04-30 21:10 | 43.95369 | 1.82404 | 31195 ft | 482 kts | 176° |
| 2026-04-30 21:10 | 43.88718 | 1.83388 | 31193 ft | 480 kts | 181° |
| 2026-04-30 21:11 | 43.82057 | 1.83859 | 31199 ft | 479 kts | 182° |
| 2026-04-30 21:11 | 43.75393 | 1.84327 | 31174 ft | 480 kts | 181° |
| 2026-04-30 21:12 | 43.68729 | 1.84949 | 31195 ft | 481 kts | 180° |
| 2026-04-30 21:12 | 43.62048 | 1.85636 | 31193 ft | 482 kts | 180° |
| 2026-04-30 21:13 | 43.55341 | 1.86304 | 31191 ft | 483 kts | 180° |
| 2026-04-30 21:13 | 43.48682 | 1.86951 | 31190 ft | 483 kts | 180° |
| 2026-04-30 21:14 | 43.41967 | 1.87588 | 31194 ft | 483 kts | 180° |
| 2026-04-30 21:14 | 43.35257 | 1.88217 | 31174 ft | 484 kts | 180° |
| 2026-04-30 21:15 | 43.28530 | 1.88857 | 31184 ft | 485 kts | 180° |
| 2026-04-30 21:15 | 43.21799 | 1.89506 | 31204 ft | 485 kts | 180° |
| 2026-04-30 21:16 | 43.15066 | 1.90158 | 31188 ft | 485 kts | 180° |
| 2026-04-30 21:16 | 43.08294 | 1.90800 | 31198 ft | 485 kts | 180° |
| 2026-04-30 21:17 | 43.01564 | 1.91440 | 31201 ft | 485 kts | 180° |
| 2026-04-30 21:17 | 42.94836 | 1.92079 | 31191 ft | 485 kts | 180° |
| 2026-04-30 21:18 | 42.88107 | 1.92713 | 31190 ft | 485 kts | 180° |
| 2026-04-30 21:18 | 42.81377 | 1.93344 | 31193 ft | 485 kts | 180° |
| 2026-04-30 21:19 | 42.74651 | 1.93975 | 31192 ft | 484 kts | 180° |
| 2026-04-30 21:19 | 42.67950 | 1.94607 | 31201 ft | 485 kts | 180° |
| 2026-04-30 21:20 | 42.61230 | 1.95628 | 31200 ft | 488 kts | 176° |
| 2026-04-30 21:20 | 42.54518 | 1.97122 | 31196 ft | 489 kts | 174° |
| 2026-04-30 21:21 | 42.47808 | 1.98642 | 31213 ft | 489 kts | 175° |
| 2026-04-30 21:22 | 42.38860 | 2.00460 | 31204 ft | 488 kts | 176° |
| 2026-04-30 21:23 | 42.25380 | 2.02098 | 31211 ft | 485 kts | 181° |
| 2026-04-30 21:23 | 42.15258 | 2.02845 | 31203 ft | 486 kts | 180° |
| 2026-04-30 21:24 | 42.08524 | 2.03479 | 31186 ft | 484 kts | 180° |
| 2026-04-30 21:24 | 42.01811 | 2.04149 | 31189 ft | 483 kts | 180° |
| 2026-04-30 21:25 | 41.91769 | 2.05116 | 31179 ft | 481 kts | 180° |
| 2026-04-30 21:26 | 41.81765 | 2.06040 | 31166 ft | 480 kts | 180° |
| 2026-04-30 21:27 | 41.71773 | 2.06984 | 31170 ft | 479 kts | 180° |
| 2026-04-30 21:27 | 41.65121 | 2.07598 | 31183 ft | 479 kts | 180° |
| 2026-04-30 21:28 | 41.55161 | 2.08523 | 31180 ft | 478 kts | 180° |
| 2026-04-30 21:29 | 41.45221 | 2.09449 | 31177 ft | 477 kts | 179° |
| 2026-04-30 21:30 | 41.28677 | 2.11005 | 31164 ft | 476 kts | 178° |
| 2026-04-30 21:31 | 41.12261 | 2.13884 | 31160 ft | 476 kts | 176° |
| 2026-04-30 21:32 | 41.02428 | 2.15548 | 31156 ft | 474 kts | 176° |
| 2026-04-30 21:32 | 40.95880 | 2.16616 | 31151 ft | 474 kts | 176° |
| 2026-04-30 21:33 | 40.86057 | 2.18239 | 31135 ft | 474 kts | 176° |
| 2026-04-30 21:34 | 40.79550 | 2.19331 | 31139 ft | 475 kts | 176° |
| 2026-04-30 21:34 | 40.69720 | 2.20963 | 31141 ft | 475 kts | 176° |
| 2026-04-30 21:35 | 40.63165 | 2.22031 | 31141 ft | 475 kts | 176° |
| 2026-04-30 21:35 | 40.56605 | 2.23108 | 31139 ft | 475 kts | 176° |
| 2026-04-30 21:36 | 40.50051 | 2.24188 | 31136 ft | 475 kts | 176° |
| 2026-04-30 21:37 | 40.36947 | 2.26554 | 30896 ft | 471 kts | 173° |
| 2026-04-30 21:37 | 40.33774 | 2.27379 | 30550 ft | 458 kts | 172° |
| 2026-04-30 21:37 | 40.30707 | 2.28253 | 30320 ft | 445 kts | 172° |
| 2026-04-30 21:38 | 40.27721 | 2.29112 | 30065 ft | 436 kts | 172° |
| 2026-04-30 21:38 | 40.24771 | 2.29939 | 29771 ft | 432 kts | 172° |
| 2026-04-30 21:38 | 40.21828 | 2.30732 | 29477 ft | 430 kts | 173° |
| 2026-04-30 21:38 | 40.18903 | 2.31492 | 29204 ft | 428 kts | 173° |
| 2026-04-30 21:39 | 40.15988 | 2.32233 | 28928 ft | 426 kts | 173° |
| 2026-04-30 21:39 | 40.13077 | 2.32969 | 28660 ft | 425 kts | 173° |
| 2026-04-30 21:39 | 40.10185 | 2.33703 | 28390 ft | 423 kts | 173° |
| 2026-04-30 21:39 | 40.07300 | 2.34437 | 28125 ft | 421 kts | 173° |
| 2026-04-30 21:40 | 40.04431 | 2.35168 | 27857 ft | 420 kts | 173° |
| 2026-04-30 21:40 | 40.01570 | 2.35899 | 27599 ft | 418 kts | 173° |
| 2026-04-30 21:40 | 39.98726 | 2.36630 | 27335 ft | 416 kts | 173° |
| 2026-04-30 21:40 | 39.95896 | 2.37355 | 27078 ft | 415 kts | 173° |
| 2026-04-30 21:41 | 39.93070 | 2.38080 | 26821 ft | 413 kts | 172° |
| 2026-04-30 21:41 | 39.90255 | 2.38803 | 26591 ft | 411 kts | 172° |
| 2026-04-30 21:41 | 39.87455 | 2.39520 | 26331 ft | 410 kts | 172° |
| 2026-04-30 21:41 | 39.84658 | 2.40235 | 26083 ft | 408 kts | 172° |
| 2026-04-30 21:42 | 39.81875 | 2.40946 | 25838 ft | 407 kts | 172° |
| 2026-04-30 21:42 | 39.79100 | 2.41655 | 25597 ft | 406 kts | 172° |
| 2026-04-30 21:42 | 39.76326 | 2.42277 | 25346 ft | 402 kts | 178° |
| 2026-04-30 21:42 | 39.73558 | 2.42388 | 25105 ft | 396 kts | 186° |
| 2026-04-30 21:43 | 39.70830 | 2.42016 | 24872 ft | 393 kts | 190° |
| 2026-04-30 21:43 | 39.68120 | 2.41588 | 24642 ft | 392 kts | 190° |
| 2026-04-30 21:43 | 39.65416 | 2.41170 | 24409 ft | 391 kts | 189° |
| 2026-04-30 21:43 | 39.62719 | 2.40760 | 24180 ft | 389 kts | 189° |
| 2026-04-30 21:44 | 39.60042 | 2.40302 | 23951 ft | 386 kts | 194° |
| 2026-04-30 21:44 | 39.57492 | 2.39299 | 23723 ft | 381 kts | 205° |
| 2026-04-30 21:44 | 39.55175 | 2.37672 | 23455 ft | 377 kts | 216° |
| 2026-04-30 21:44 | 39.53176 | 2.35508 | 23185 ft | 374 kts | 227° |
| 2026-04-30 21:45 | 39.51552 | 2.32901 | 22917 ft | 371 kts | 237° |
| 2026-04-30 21:45 | 39.50145 | 2.30102 | 22654 ft | 370 kts | 237° |
| 2026-04-30 21:45 | 39.48734 | 2.27314 | 22395 ft | 369 kts | 237° |
| 2026-04-30 21:45 | 39.47330 | 2.24546 | 22137 ft | 368 kts | 237° |
| 2026-04-30 21:46 | 39.45924 | 2.21782 | 21871 ft | 367 kts | 237° |
| 2026-04-30 21:46 | 39.44523 | 2.19033 | 21614 ft | 365 kts | 237° |
| 2026-04-30 21:46 | 39.43125 | 2.16290 | 21378 ft | 364 kts | 237° |
| 2026-04-30 21:46 | 39.41732 | 2.13556 | 21121 ft | 363 kts | 237° |
| 2026-04-30 21:47 | 39.40345 | 2.10838 | 20866 ft | 362 kts | 237° |
| 2026-04-30 21:47 | 39.38963 | 2.08132 | 20586 ft | 356 kts | 237° |
| 2026-04-30 21:47 | 39.37609 | 2.05480 | 20145 ft | 350 kts | 237° |
| 2026-04-30 21:47 | 39.36276 | 2.02874 | 19699 ft | 346 kts | 237° |
| 2026-04-30 21:48 | 39.34955 | 2.00293 | 19252 ft | 342 kts | 237° |
| 2026-04-30 21:48 | 39.33649 | 1.97737 | 18792 ft | 339 kts | 237° |
| 2026-04-30 21:48 | 39.32353 | 1.95203 | 18345 ft | 336 kts | 237° |
| 2026-04-30 21:48 | 39.31067 | 1.92695 | 17845 ft | 333 kts | 237° |
| 2026-04-30 21:49 | 39.29797 | 1.90226 | 17419 ft | 329 kts | 237° |
| 2026-04-30 21:49 | 39.28539 | 1.87781 | 16983 ft | 325 kts | 237° |
| 2026-04-30 21:49 | 39.27300 | 1.85367 | 16564 ft | 321 kts | 237° |
| 2026-04-30 21:49 | 39.26078 | 1.82985 | 16220 ft | 314 kts | 237° |
| 2026-04-30 21:50 | 39.24897 | 1.80690 | 16105 ft | 301 kts | 237° |
| 2026-04-30 21:50 | 39.23762 | 1.78490 | 15969 ft | 288 kts | 237° |
| 2026-04-30 21:50 | 39.22675 | 1.76384 | 15858 ft | 277 kts | 237° |
| 2026-04-30 21:50 | 39.21626 | 1.74355 | 15641 ft | 269 kts | 237° |
| 2026-04-30 21:51 | 39.20599 | 1.72364 | 15371 ft | 264 kts | 239° |
| 2026-04-30 21:51 | 39.19736 | 1.70293 | 15141 ft | 261 kts | 244° |
| 2026-04-30 21:51 | 39.18897 | 1.68225 | 14899 ft | 259 kts | 243° |
| 2026-04-30 21:51 | 39.18061 | 1.66183 | 14625 ft | 258 kts | 243° |
| 2026-04-30 21:52 | 39.17224 | 1.64147 | 14266 ft | 255 kts | 243° |
| 2026-04-30 21:52 | 39.16395 | 1.62134 | 13916 ft | 253 kts | 243° |
| 2026-04-30 21:52 | 39.15557 | 1.60155 | 13539 ft | 251 kts | 238° |
| 2026-04-30 21:52 | 39.14253 | 1.58690 | 13184 ft | 255 kts | 206° |
| 2026-04-30 21:53 | 39.12495 | 1.58424 | 12800 ft | 263 kts | 172° |
| 2026-04-30 21:53 | 39.10800 | 1.59354 | 12375 ft | 267 kts | 155° |
| 2026-04-30 21:53 | 39.09210 | 1.60578 | 11956 ft | 268 kts | 142° |
| 2026-04-30 21:53 | 39.08203 | 1.62574 | 11547 ft | 270 kts | 107° |
| 2026-04-30 21:54 | 39.08200 | 1.64922 | 11173 ft | 258 kts | 73° |
| 2026-04-30 21:54 | 39.08946 | 1.66929 | 10790 ft | 241 kts | 60° |
| 2026-04-30 21:54 | 39.09718 | 1.68783 | 10464 ft | 229 kts | 60° |
| 2026-04-30 21:54 | 39.10440 | 1.70554 | 10136 ft | 219 kts | 61° |
| 2026-04-30 21:55 | 39.11131 | 1.72258 | 9810 ft | 211 kts | 60° |
| 2026-04-30 21:55 | 39.11779 | 1.73907 | 9485 ft | 203 kts | 67° |
| 2026-04-30 21:55 | 39.12008 | 1.75660 | 9190 ft | 197 kts | 93° |
| 2026-04-30 21:55 | 39.11679 | 1.77329 | 8916 ft | 190 kts | 116° |
| 2026-04-30 21:56 | 39.10925 | 1.78645 | 8622 ft | 179 kts | 139° |
| 2026-04-30 21:56 | 39.09909 | 1.79489 | 8339 ft | 171 kts | 155° |
| 2026-04-30 21:56 | 39.08859 | 1.80189 | 8070 ft | 169 kts | 154° |
| 2026-04-30 21:56 | 39.07787 | 1.80777 | 7813 ft | 167 kts | 169° |
| 2026-04-30 21:57 | 39.06652 | 1.80838 | 7553 ft | 165 kts | 191° |
| 2026-04-30 21:57 | 39.05569 | 1.80355 | 7299 ft | 162 kts | 213° |
| 2026-04-30 21:57 | 39.04722 | 1.79427 | 7063 ft | 160 kts | 234° |
| 2026-04-30 21:57 | 39.04166 | 1.78207 | 6852 ft | 158 kts | 246° |
| 2026-04-30 21:58 | 39.03642 | 1.76954 | 6612 ft | 160 kts | 244° |
| 2026-04-30 21:58 | 39.03095 | 1.75705 | 6293 ft | 160 kts | 245° |
| 2026-04-30 21:58 | 39.02566 | 1.74449 | 6039 ft | 160 kts | 245° |
| 2026-04-30 21:58 | 39.02050 | 1.73204 | 5829 ft | 160 kts | 245° |
| 2026-04-30 21:59 | 39.01531 | 1.71940 | 5604 ft | 160 kts | 245° |
| 2026-04-30 21:59 | 39.01012 | 1.70674 | 5397 ft | 160 kts | 245° |
| 2026-04-30 21:59 | 39.00493 | 1.69409 | 5189 ft | 160 kts | 245° |
| 2026-04-30 22:00 | 38.99449 | 1.66860 | 4775 ft | 160 kts | 244° |
| 2026-04-30 22:00 | 38.98412 | 1.64329 | 4326 ft | 160 kts | 244° |
| 2026-04-30 22:00 | 38.97894 | 1.63068 | 4131 ft | 160 kts | 243° |
| 2026-04-30 22:01 | 38.97376 | 1.61806 | 3925 ft | 159 kts | 243° |
| 2026-04-30 22:01 | 38.96862 | 1.60553 | 3718 ft | 158 kts | 243° |
| 2026-04-30 22:01 | 38.96352 | 1.59311 | 3516 ft | 158 kts | 242° |
| 2026-04-30 22:01 | 38.95837 | 1.58058 | 3312 ft | 157 kts | 242° |
| 2026-04-30 22:02 | 38.95326 | 1.56814 | 3105 ft | 157 kts | 242° |
| 2026-04-30 22:02 | 38.94813 | 1.55567 | 2898 ft | 158 kts | 241° |
| 2026-04-30 22:02 | 38.94310 | 1.54343 | 2707 ft | 158 kts | 241° |
| 2026-04-30 22:02 | 38.93795 | 1.53093 | 2485 ft | 158 kts | 240° |
| 2026-04-30 22:03 | 38.93286 | 1.51855 | 2288 ft | 155 kts | 242° |
| 2026-04-30 22:03 | 38.92779 | 1.50625 | 2071 ft | 153 kts | 241° |
| 2026-04-30 22:03 | 38.92284 | 1.49423 | 1868 ft | 151 kts | 242° |
| 2026-04-30 22:03 | 38.91794 | 1.48234 | 1673 ft | 151 kts | 242° |
| 2026-04-30 22:04 | 38.91471 | 1.47452 | 1526 ft | 150 kts | 242° |
| 2026-04-30 22:04 | 38.90983 | 1.46267 | 1338 ft | 149 kts | 242° |
| 2026-04-30 22:04 | 38.90014 | 1.43919 | 946 ft | 148 kts | 242° |
| 2026-04-30 22:05 | 38.89533 | 1.42754 | 754 ft | 147 kts | 242° |
| 2026-04-30 22:05 | 38.89054 | 1.41595 | 570 ft | 147 kts | 242° |
| 2026-04-30 22:05 | 38.88577 | 1.40441 | 368 ft | 146 kts | 242° |
| 2026-04-30 22:05 | 38.88101 | 1.39290 | 171 ft | 146 kts | 242° |
| 2026-04-30 22:06 | 38.87628 | 1.38149 | 33 ft | 142 kts | 242° |
| 2026-04-30 22:06 | 38.87094 | 1.36871 | 31 ft | 58 kts | 242° |
| 2026-04-30 22:06 | 38.86918 | 1.36445 | 27 ft | 50 kts | 242° |
| 2026-04-30 22:07 | 38.86779 | 1.36095 | 28 ft | 32 kts | 243° |
| 2026-04-30 22:07 | 38.86722 | 1.35914 | 28 ft | 22 kts | 274° |
| 2026-04-30 22:07 | 38.86808 | 1.35762 | 27 ft | 13 kts | 354° |
| 2026-04-30 22:07 | 38.86842 | 1.35802 | 27 ft | 7 kts | 61° |
| 2026-04-30 22:08 | 38.86898 | 1.35927 | 27 ft | 27 kts | 59° |
| 2026-04-30 22:08 | 38.87004 | 1.36173 | 27 ft | 33 kts | 64° |
| 2026-04-30 22:08 | 38.87088 | 1.36388 | 28 ft | 21 kts | 62° |